sensor_id;sensor_type;location;lat;lon;timestamp;pressure;altitude;pressure_sealevel;temperature;humidity
23616;BME280;11985;49.404;7.734;2022-11-21T00:00:05;96408.47;;;4.32;100.00
23616;BME280;11985;49.404;7.734;2022-11-21T00:05:08;96404.06;;;4.33;100.00
23616;BME280;11985;49.404;7.734;2022-11-21T00:10:10;96394.53;;;4.40;100.00
23616;BME280;11985;49.404;7.734;2022-11-21T00:15:11;96402.34;;;4.40;100.00
23616;BME280;11985;49.404;7.734;2022-11-21T00:20:15;96388.16;;;4.49;100.00
23616;BME280;11985;49.404;7.734;2022-11-21T00:25:17;96387.41;;;4.55;100.00
23616;BME280;11985;49.404;7.734;2022-11-21T00:30:19;96387.88;;;4.65;100.00
23616;BME280;11985;49.404;7.734;2022-11-21T00:35:22;96387.47;;;4.62;100.00
23616;BME280;11985;49.404;7.734;2022-11-21T00:40:23;96384.06;;;4.61;100.00
23616;BME280;11985;49.404;7.734;2022-11-21T00:45:25;96389.66;;;4.58;100.00
23616;BME280;11985;49.404;7.734;2022-11-21T00:50:28;96385.78;;;4.54;100.00
23616;BME280;11985;49.404;7.734;2022-11-21T00:55:29;96376.31;;;4.46;100.00
23616;BME280;11985;49.404;7.734;2022-11-21T01:00:31;96364.81;;;4.34;100.00
23616;BME280;11985;49.404;7.734;2022-11-21T01:05:34;96361.50;;;4.26;100.00
23616;BME280;11985;49.404;7.734;2022-11-21T01:10:35;96355.81;;;4.15;100.00
23616;BME280;11985;49.404;7.734;2022-11-21T01:15:37;96351.34;;;4.09;100.00
23616;BME280;11985;49.404;7.734;2022-11-21T01:20:40;96352.09;;;4.03;100.00
23616;BME280;11985;49.404;7.734;2022-11-21T01:25:41;96348.25;;;3.99;100.00
23616;BME280;11985;49.404;7.734;2022-11-21T01:30:43;96346.63;;;3.98;100.00
23616;BME280;11985;49.404;7.734;2022-11-21T01:35:46;96350.53;;;4.09;100.00
23616;BME280;11985;49.404;7.734;2022-11-21T01:40:47;96334.19;;;4.21;100.00
23616;BME280;11985;49.404;7.734;2022-11-21T01:45:54;96329.22;;;4.27;100.00
23616;BME280;11985;49.404;7.734;2022-11-21T01:51:02;96339.28;;;4.30;100.00
23616;BME280;11985;49.404;7.734;2022-11-21T01:56:07;96335.09;;;4.29;100.00
23616;BME280;11985;49.404;7.734;2022-11-21T02:01:09;96347.13;;;4.30;100.00
23616;BME280;11985;49.404;7.734;2022-11-21T02:06:12;96352.38;;;4.36;100.00
23616;BME280;11985;49.404;7.734;2022-11-21T02:11:20;96351.22;;;4.39;100.00
23616;BME280;11985;49.404;7.734;2022-11-21T02:16:24;96352.81;;;4.40;100.00
23616;BME280;11985;49.404;7.734;2022-11-21T02:21:35;96355.41;;;4.40;100.00
23616;BME280;11985;49.404;7.734;2022-11-21T02:26:43;96342.75;;;4.37;100.00
23616;BME280;11985;49.404;7.734;2022-11-21T02:31:46;96348.34;;;4.34;100.00
23616;BME280;11985;49.404;7.734;2022-11-21T02:36:48;96347.56;;;4.33;100.00
23616;BME280;11985;49.404;7.734;2022-11-21T02:41:57;96340.28;;;4.29;100.00
23616;BME280;11985;49.404;7.734;2022-11-21T02:46:59;96339.06;;;4.24;100.00
23616;BME280;11985;49.404;7.734;2022-11-21T02:52:01;96331.59;;;4.21;100.00
23616;BME280;11985;49.404;7.734;2022-11-21T02:57:04;96343.41;;;4.17;100.00
23616;BME280;11985;49.404;7.734;2022-11-21T03:02:05;96338.13;;;4.11;100.00
23616;BME280;11985;49.404;7.734;2022-11-21T03:07:07;96340.56;;;4.12;100.00
23616;BME280;11985;49.404;7.734;2022-11-21T03:12:10;96349.97;;;4.13;100.00
23616;BME280;11985;49.404;7.734;2022-11-21T03:17:11;96351.59;;;4.14;100.00
23616;BME280;11985;49.404;7.734;2022-11-21T03:22:13;96344.78;;;4.13;100.00
23616;BME280;11985;49.404;7.734;2022-11-21T03:27:16;96346.81;;;4.18;100.00
23616;BME280;11985;49.404;7.734;2022-11-21T03:32:18;96340.38;;;4.14;100.00
23616;BME280;11985;49.404;7.734;2022-11-21T03:37:20;96352.94;;;4.10;100.00
23616;BME280;11985;49.404;7.734;2022-11-21T03:42:22;96355.75;;;4.09;100.00
23616;BME280;11985;49.404;7.734;2022-11-21T03:47:24;96355.63;;;4.17;100.00
23616;BME280;11985;49.404;7.734;2022-11-21T03:52:26;96354.81;;;4.16;100.00
23616;BME280;11985;49.404;7.734;2022-11-21T03:57:29;96352.19;;;4.16;100.00
23616;BME280;11985;49.404;7.734;2022-11-21T04:02:31;96348.88;;;4.22;100.00
23616;BME280;11985;49.404;7.734;2022-11-21T04:07:32;96345.88;;;4.26;100.00
23616;BME280;11985;49.404;7.734;2022-11-21T04:12:35;96352.69;;;4.27;100.00
23616;BME280;11985;49.404;7.734;2022-11-21T04:17:37;96353.94;;;4.31;100.00
23616;BME280;11985;49.404;7.734;2022-11-21T04:22:38;96366.97;;;4.31;100.00
23616;BME280;11985;49.404;7.734;2022-11-21T04:27:41;96348.72;;;4.31;100.00
23616;BME280;11985;49.404;7.734;2022-11-21T04:32:43;96360.38;;;4.35;100.00
23616;BME280;11985;49.404;7.734;2022-11-21T04:37:44;96355.78;;;4.37;100.00
23616;BME280;11985;49.404;7.734;2022-11-21T04:42:47;96348.34;;;4.34;100.00
23616;BME280;11985;49.404;7.734;2022-11-21T04:47:49;96341.91;;;4.30;100.00
23616;BME280;11985;49.404;7.734;2022-11-21T04:52:51;96338.72;;;4.34;100.00
23616;BME280;11985;49.404;7.734;2022-11-21T04:57:55;96330.34;;;4.39;100.00
23616;BME280;11985;49.404;7.734;2022-11-21T05:03:00;96330.56;;;4.44;100.00
23616;BME280;11985;49.404;7.734;2022-11-21T05:08:03;96343.56;;;4.37;100.00
23616;BME280;11985;49.404;7.734;2022-11-21T05:13:08;96345.31;;;4.30;100.00
23616;BME280;11985;49.404;7.734;2022-11-21T05:18:22;96341.66;;;4.24;100.00
23616;BME280;11985;49.404;7.734;2022-11-21T05:23:24;96330.22;;;4.26;100.00
23616;BME280;11985;49.404;7.734;2022-11-21T05:28:26;96329.00;;;4.21;100.00
23616;BME280;11985;49.404;7.734;2022-11-21T05:33:28;96339.81;;;4.18;100.00
23616;BME280;11985;49.404;7.734;2022-11-21T05:38:29;96337.00;;;4.20;100.00
23616;BME280;11985;49.404;7.734;2022-11-21T05:43:32;96337.50;;;4.30;100.00
23616;BME280;11985;49.404;7.734;2022-11-21T05:48:47;96333.06;;;4.31;100.00
23616;BME280;11985;49.404;7.734;2022-11-21T05:53:49;96328.47;;;4.33;100.00
23616;BME280;11985;49.404;7.734;2022-11-21T05:58:53;96337.25;;;4.25;100.00
23616;BME280;11985;49.404;7.734;2022-11-21T06:03:55;96339.16;;;4.16;100.00
23616;BME280;11985;49.404;7.734;2022-11-21T06:08:56;96332.91;;;4.11;100.00
23616;BME280;11985;49.404;7.734;2022-11-21T06:13:59;96334.53;;;4.12;100.00
23616;BME280;11985;49.404;7.734;2022-11-21T06:19:01;96335.16;;;4.14;100.00
23616;BME280;11985;49.404;7.734;2022-11-21T06:24:02;96339.41;;;4.21;100.00
23616;BME280;11985;49.404;7.734;2022-11-21T06:29:09;96344.00;;;4.19;100.00
23616;BME280;11985;49.404;7.734;2022-11-21T06:34:11;96332.25;;;4.02;100.00
23616;BME280;11985;49.404;7.734;2022-11-21T06:39:12;96347.78;;;3.89;100.00
23616;BME280;11985;49.404;7.734;2022-11-21T06:44:15;96345.31;;;3.87;100.00
23616;BME280;11985;49.404;7.734;2022-11-21T06:49:17;96344.72;;;3.85;100.00
23616;BME280;11985;49.404;7.734;2022-11-21T06:54:19;96351.47;;;3.80;100.00
23616;BME280;11985;49.404;7.734;2022-11-21T06:59:22;96345.88;;;3.83;100.00
23616;BME280;11985;49.404;7.734;2022-11-21T07:04:23;96352.34;;;3.87;100.00
23616;BME280;11985;49.404;7.734;2022-11-21T07:09:25;96352.03;;;3.96;100.00
23616;BME280;11985;49.404;7.734;2022-11-21T07:14:28;96347.69;;;4.04;100.00
23616;BME280;11985;49.404;7.734;2022-11-21T07:19:29;96349.63;;;3.95;100.00
23616;BME280;11985;49.404;7.734;2022-11-21T07:24:31;96356.69;;;3.80;100.00
23616;BME280;11985;49.404;7.734;2022-11-21T07:29:34;96364.84;;;3.77;100.00
23616;BME280;11985;49.404;7.734;2022-11-21T07:34:35;96353.03;;;3.74;100.00
23616;BME280;11985;49.404;7.734;2022-11-21T07:39:37;96355.31;;;3.62;100.00
23616;BME280;11985;49.404;7.734;2022-11-21T07:44:40;96349.31;;;3.62;100.00
23616;BME280;11985;49.404;7.734;2022-11-21T07:49:41;96359.63;;;3.55;100.00
23616;BME280;11985;49.404;7.734;2022-11-21T07:54:43;96359.38;;;3.50;100.00
23616;BME280;11985;49.404;7.734;2022-11-21T07:59:45;96353.19;;;3.51;100.00
23616;BME280;11985;49.404;7.734;2022-11-21T08:04:47;96345.25;;;3.59;100.00
23616;BME280;11985;49.404;7.734;2022-11-21T08:09:49;96336.16;;;3.70;100.00
23616;BME280;11985;49.404;7.734;2022-11-21T08:14:52;96336.47;;;3.82;100.00
23616;BME280;11985;49.404;7.734;2022-11-21T08:19:54;96342.72;;;3.87;100.00
23616;BME280;11985;49.404;7.734;2022-11-21T08:24:57;96338.97;;;3.90;100.00
23616;BME280;11985;49.404;7.734;2022-11-21T08:30:00;96333.91;;;3.88;100.00
23616;BME280;11985;49.404;7.734;2022-11-21T08:35:02;96321.94;;;3.94;100.00
23616;BME280;11985;49.404;7.734;2022-11-21T08:40:05;96312.75;;;3.98;100.00
23616;BME280;11985;49.404;7.734;2022-11-21T08:45:09;96320.38;;;4.00;100.00
23616;BME280;11985;49.404;7.734;2022-11-21T08:50:10;96314.88;;;4.09;100.00
23616;BME280;11985;49.404;7.734;2022-11-21T08:55:12;96305.69;;;4.13;100.00
23616;BME280;11985;49.404;7.734;2022-11-21T09:00:15;96301.81;;;4.31;100.00
23616;BME280;11985;49.404;7.734;2022-11-21T09:05:17;96302.28;;;4.41;100.00
23616;BME280;11985;49.404;7.734;2022-11-21T09:10:19;96296.63;;;4.37;100.00
23616;BME280;11985;49.404;7.734;2022-11-21T09:15:22;96301.19;;;4.29;100.00
23616;BME280;11985;49.404;7.734;2022-11-21T09:20:42;96287.41;;;4.35;100.00
23616;BME280;11985;49.404;7.734;2022-11-21T09:25:44;96283.44;;;4.39;100.00
23616;BME280;11985;49.404;7.734;2022-11-21T09:30:47;96273.84;;;4.46;100.00
23616;BME280;11985;49.404;7.734;2022-11-21T09:35:49;96277.28;;;4.53;100.00
23616;BME280;11985;49.404;7.734;2022-11-21T09:40:50;96279.56;;;4.69;100.00
23616;BME280;11985;49.404;7.734;2022-11-21T09:45:58;96250.34;;;4.87;100.00
23616;BME280;11985;49.404;7.734;2022-11-21T09:51:05;96262.94;;;5.18;100.00
23616;BME280;11985;49.404;7.734;2022-11-21T09:56:11;96253.16;;;5.47;100.00
23616;BME280;11985;49.404;7.734;2022-11-21T10:01:16;96248.97;;;5.86;100.00
23616;BME280;11985;49.404;7.734;2022-11-21T10:06:19;96240.16;;;6.13;100.00
23616;BME280;11985;49.404;7.734;2022-11-21T10:11:32;96230.28;;;6.15;100.00
23616;BME280;11985;49.404;7.734;2022-11-21T10:16:43;96231.31;;;6.07;100.00
23616;BME280;11985;49.404;7.734;2022-11-21T10:22:16;96216.41;;;6.21;100.00
23616;BME280;11985;49.404;7.734;2022-11-21T10:27:26;96221.19;;;6.51;100.00
23616;BME280;11985;49.404;7.734;2022-11-21T10:32:35;96202.25;;;6.62;100.00
23616;BME280;11985;49.404;7.734;2022-11-21T10:37:41;96204.28;;;6.53;100.00
23616;BME280;11985;49.404;7.734;2022-11-21T10:42:48;96182.16;;;6.49;100.00
23616;BME280;11985;49.404;7.734;2022-11-21T10:47:53;96172.91;;;6.47;100.00
23616;BME280;11985;49.404;7.734;2022-11-21T10:53:04;96160.03;;;6.52;100.00
23616;BME280;11985;49.404;7.734;2022-11-21T10:58:36;96144.44;;;7.08;100.00
23616;BME280;11985;49.404;7.734;2022-11-21T11:03:41;96141.41;;;6.73;100.00
23616;BME280;11985;49.404;7.734;2022-11-21T11:08:49;96136.47;;;6.52;100.00
23616;BME280;11985;49.404;7.734;2022-11-21T11:13:55;96123.78;;;6.49;100.00
23616;BME280;11985;49.404;7.734;2022-11-21T11:19:00;96114.16;;;6.43;100.00
23616;BME280;11985;49.404;7.734;2022-11-21T11:24:19;96105.22;;;6.64;100.00
23616;BME280;11985;49.404;7.734;2022-11-21T11:29:22;96095.91;;;6.74;100.00
23616;BME280;11985;49.404;7.734;2022-11-21T11:34:27;96094.91;;;6.75;100.00
23616;BME280;11985;49.404;7.734;2022-11-21T11:39:48;96095.13;;;6.74;100.00
23616;BME280;11985;49.404;7.734;2022-11-21T11:45:07;96084.88;;;6.72;100.00
23616;BME280;11985;49.404;7.734;2022-11-21T11:50:37;96071.78;;;6.66;100.00
23616;BME280;11985;49.404;7.734;2022-11-21T11:55:45;96072.19;;;6.69;100.00
23616;BME280;11985;49.404;7.734;2022-11-21T12:00:52;96063.09;;;6.78;100.00
23616;BME280;11985;49.404;7.734;2022-11-21T12:06:02;96053.75;;;6.89;100.00
23616;BME280;11985;49.404;7.734;2022-11-21T12:11:12;96045.09;;;6.88;99.59
23616;BME280;11985;49.404;7.734;2022-11-21T12:16:34;96030.28;;;6.76;98.58
23616;BME280;11985;49.404;7.734;2022-11-21T12:21:38;96012.94;;;6.81;99.78
23616;BME280;11985;49.404;7.734;2022-11-21T12:26:48;96012.94;;;6.81;100.00
23616;BME280;11985;49.404;7.734;2022-11-21T12:32:08;96008.69;;;6.55;100.00
23616;BME280;11985;49.404;7.734;2022-11-21T12:37:24;96001.03;;;6.54;100.00
23616;BME280;11985;49.404;7.734;2022-11-21T12:42:34;95961.56;;;6.62;100.00
23616;BME280;11985;49.404;7.734;2022-11-21T12:53:45;95957.47;;;6.66;100.00
23616;BME280;11985;49.404;7.734;2022-11-21T12:59:19;95952.38;;;6.78;100.00
23616;BME280;11985;49.404;7.734;2022-11-21T13:04:23;95936.81;;;7.26;100.00
23616;BME280;11985;49.404;7.734;2022-11-21T13:09:31;95930.88;;;7.56;100.00
23616;BME280;11985;49.404;7.734;2022-11-21T13:14:43;95921.84;;;7.70;100.00
23616;BME280;11985;49.404;7.734;2022-11-21T13:19:51;95915.75;;;7.58;100.00
23616;BME280;11985;49.404;7.734;2022-11-21T13:24:57;95904.81;;;7.43;100.00
23616;BME280;11985;49.404;7.734;2022-11-21T13:30:26;95900.69;;;7.35;100.00
23616;BME280;11985;49.404;7.734;2022-11-21T13:35:56;95890.13;;;7.23;100.00
23616;BME280;11985;49.404;7.734;2022-11-21T13:40:58;95880.53;;;7.17;100.00
23616;BME280;11985;49.404;7.734;2022-11-21T13:51:53;95858.84;;;7.10;100.00
23616;BME280;11985;49.404;7.734;2022-11-21T13:57:04;95854.94;;;7.01;100.00
23616;BME280;11985;49.404;7.734;2022-11-21T14:02:34;95850.69;;;6.81;100.00
23616;BME280;11985;49.404;7.734;2022-11-21T14:07:43;95843.84;;;6.80;100.00
23616;BME280;11985;49.404;7.734;2022-11-21T14:12:47;95823.94;;;6.98;100.00
23616;BME280;11985;49.404;7.734;2022-11-21T14:17:52;95813.75;;;7.08;100.00
23616;BME280;11985;49.404;7.734;2022-11-21T14:22:57;95812.44;;;6.99;100.00
23616;BME280;11985;49.404;7.734;2022-11-21T14:28:04;95788.41;;;6.90;100.00
23616;BME280;11985;49.404;7.734;2022-11-21T14:33:20;95765.34;;;6.80;100.00
23616;BME280;11985;49.404;7.734;2022-11-21T14:38:22;95756.56;;;6.75;100.00
23616;BME280;11985;49.404;7.734;2022-11-21T14:43:30;95732.94;;;6.63;100.00
23616;BME280;11985;49.404;7.734;2022-11-21T14:48:32;95707.88;;;6.55;100.00
23616;BME280;11985;49.404;7.734;2022-11-21T14:53:38;95691.75;;;6.40;100.00
23616;BME280;11985;49.404;7.734;2022-11-21T14:58:42;95677.34;;;6.31;100.00
23616;BME280;11985;49.404;7.734;2022-11-21T15:03:53;95679.31;;;6.17;100.00
23616;BME280;11985;49.404;7.734;2022-11-21T15:08:55;95663.16;;;6.02;100.00
23616;BME280;11985;49.404;7.734;2022-11-21T15:14:02;95669.31;;;5.82;100.00
23616;BME280;11985;49.404;7.734;2022-11-21T15:19:07;95647.69;;;5.75;100.00
23616;BME280;11985;49.404;7.734;2022-11-21T15:24:18;95647.69;;;5.75;100.00
23616;BME280;11985;49.404;7.734;2022-11-21T15:29:28;95611.00;;;5.89;100.00
23616;BME280;11985;49.404;7.734;2022-11-21T15:34:31;95597.00;;;5.83;100.00
23616;BME280;11985;49.404;7.734;2022-11-21T15:39:35;95589.50;;;5.68;100.00
23616;BME280;11985;49.404;7.734;2022-11-21T15:44:55;95565.53;;;5.53;100.00
23616;BME280;11985;49.404;7.734;2022-11-21T15:49:57;95548.19;;;5.40;100.00
23616;BME280;11985;49.404;7.734;2022-11-21T15:54:59;95541.69;;;5.24;100.00
23616;BME280;11985;49.404;7.734;2022-11-21T16:00:02;95544.25;;;5.06;100.00
23616;BME280;11985;49.404;7.734;2022-11-21T16:05:04;95525.66;;;4.96;100.00
23616;BME280;11985;49.404;7.734;2022-11-21T16:10:07;95509.34;;;4.75;100.00
23616;BME280;11985;49.404;7.734;2022-11-21T16:15:11;95479.50;;;4.71;100.00
23616;BME280;11985;49.404;7.734;2022-11-21T16:20:13;95480.16;;;4.67;100.00
23616;BME280;11985;49.404;7.734;2022-11-21T16:25:15;95465.09;;;4.69;100.00
23616;BME280;11985;49.404;7.734;2022-11-21T16:30:18;95460.09;;;4.67;100.00
23616;BME280;11985;49.404;7.734;2022-11-21T16:35:20;95447.91;;;4.61;100.00
23616;BME280;11985;49.404;7.734;2022-11-21T16:40:22;95449.44;;;4.69;100.00
23616;BME280;11985;49.404;7.734;2022-11-21T16:45:25;95450.72;;;4.85;100.00
23616;BME280;11985;49.404;7.734;2022-11-21T16:50:26;95444.88;;;4.83;100.00
23616;BME280;11985;49.404;7.734;2022-11-21T16:55:28;95437.66;;;4.85;100.00
23616;BME280;11985;49.404;7.734;2022-11-21T17:00:31;95444.97;;;4.76;100.00
23616;BME280;11985;49.404;7.734;2022-11-21T17:05:33;95469.88;;;4.72;100.00
23616;BME280;11985;49.404;7.734;2022-11-21T17:10:34;95466.72;;;4.63;100.00
23616;BME280;11985;49.404;7.734;2022-11-21T17:15:37;95462.72;;;4.61;100.00
23616;BME280;11985;49.404;7.734;2022-11-21T17:20:39;95446.78;;;4.50;100.00
23616;BME280;11985;49.404;7.734;2022-11-21T17:25:41;95442.41;;;4.44;100.00
23616;BME280;11985;49.404;7.734;2022-11-21T17:30:43;95433.63;;;4.39;100.00
23616;BME280;11985;49.404;7.734;2022-11-21T17:35:45;95414.78;;;4.37;100.00
23616;BME280;11985;49.404;7.734;2022-11-21T17:40:46;95431.97;;;4.44;100.00
23616;BME280;11985;49.404;7.734;2022-11-21T17:45:49;95416.63;;;4.61;100.00
23616;BME280;11985;49.404;7.734;2022-11-21T17:50:57;95411.34;;;4.68;100.00
23616;BME280;11985;49.404;7.734;2022-11-21T17:56:00;95397.66;;;4.72;100.00
23616;BME280;11985;49.404;7.734;2022-11-21T18:01:04;95395.47;;;4.69;100.00
23616;BME280;11985;49.404;7.734;2022-11-21T18:06:07;95398.19;;;4.56;100.00
23616;BME280;11985;49.404;7.734;2022-11-21T18:11:11;95392.81;;;4.51;100.00
23616;BME280;11985;49.404;7.734;2022-11-21T18:16:16;95389.09;;;4.40;100.00
23616;BME280;11985;49.404;7.734;2022-11-21T18:21:19;95409.56;;;4.37;100.00
23616;BME280;11985;49.404;7.734;2022-11-21T18:26:22;95423.66;;;4.29;100.00
23616;BME280;11985;49.404;7.734;2022-11-21T18:31:27;95414.88;;;4.23;100.00
23616;BME280;11985;49.404;7.734;2022-11-21T18:36:29;95388.44;;;4.20;100.00
23616;BME280;11985;49.404;7.734;2022-11-21T18:41:32;95390.03;;;4.21;100.00
23616;BME280;11985;49.404;7.734;2022-11-21T18:46:36;95375.44;;;4.45;100.00
23616;BME280;11985;49.404;7.734;2022-11-21T18:51:37;95354.03;;;4.61;100.00
23616;BME280;11985;49.404;7.734;2022-11-21T18:56:39;95344.34;;;4.68;100.00
23616;BME280;11985;49.404;7.734;2022-11-21T19:01:42;95359.91;;;4.75;100.00
23616;BME280;11985;49.404;7.734;2022-11-21T19:06:44;95353.47;;;4.78;100.00
23616;BME280;11985;49.404;7.734;2022-11-21T19:11:45;95358.69;;;4.78;100.00
23616;BME280;11985;49.404;7.734;2022-11-21T19:16:48;95344.41;;;4.80;100.00
23616;BME280;11985;49.404;7.734;2022-11-21T19:21:50;95348.69;;;4.74;100.00
23616;BME280;11985;49.404;7.734;2022-11-21T19:26:51;95339.84;;;4.75;100.00
23616;BME280;11985;49.404;7.734;2022-11-21T19:31:54;95343.06;;;4.78;100.00
23616;BME280;11985;49.404;7.734;2022-11-21T19:36:56;95337.38;;;4.81;100.00
23616;BME280;11985;49.404;7.734;2022-11-21T19:41:57;95325.22;;;4.93;100.00
23616;BME280;11985;49.404;7.734;2022-11-21T19:47:00;95316.22;;;5.07;100.00
23616;BME280;11985;49.404;7.734;2022-11-21T19:52:02;95292.44;;;5.15;100.00
23616;BME280;11985;49.404;7.734;2022-11-21T19:57:03;95282.44;;;5.12;100.00
23616;BME280;11985;49.404;7.734;2022-11-21T20:02:14;95279.56;;;5.02;100.00
23616;BME280;11985;49.404;7.734;2022-11-21T20:07:16;95274.19;;;4.97;100.00
23616;BME280;11985;49.404;7.734;2022-11-21T20:12:18;95263.75;;;4.97;100.00
23616;BME280;11985;49.404;7.734;2022-11-21T20:17:21;95260.13;;;4.98;100.00
23616;BME280;11985;49.404;7.734;2022-11-21T20:22:22;95255.81;;;4.92;100.00
23616;BME280;11985;49.404;7.734;2022-11-21T20:27:24;95258.25;;;4.87;100.00
23616;BME280;11985;49.404;7.734;2022-11-21T20:32:27;95271.75;;;4.84;100.00
23616;BME280;11985;49.404;7.734;2022-11-21T20:37:28;95267.53;;;4.83;100.00
23616;BME280;11985;49.404;7.734;2022-11-21T20:42:30;95256.84;;;4.72;100.00
23616;BME280;11985;49.404;7.734;2022-11-21T20:47:35;95262.41;;;4.76;100.00
23616;BME280;11985;49.404;7.734;2022-11-21T20:52:36;95260.31;;;4.85;100.00
23616;BME280;11985;49.404;7.734;2022-11-21T20:57:38;95252.16;;;4.93;100.00
23616;BME280;11985;49.404;7.734;2022-11-21T21:02:41;95241.41;;;4.89;100.00
23616;BME280;11985;49.404;7.734;2022-11-21T21:07:42;95238.19;;;4.87;100.00
23616;BME280;11985;49.404;7.734;2022-11-21T21:12:44;95229.44;;;4.82;100.00
23616;BME280;11985;49.404;7.734;2022-11-21T21:17:47;95224.94;;;4.70;100.00
23616;BME280;11985;49.404;7.734;2022-11-21T21:22:48;95232.84;;;4.64;100.00
23616;BME280;11985;49.404;7.734;2022-11-21T21:27:50;95219.31;;;4.55;100.00
23616;BME280;11985;49.404;7.734;2022-11-21T21:32:53;95213.75;;;4.52;100.00
23616;BME280;11985;49.404;7.734;2022-11-21T21:37:54;95208.94;;;4.48;100.00
23616;BME280;11985;49.404;7.734;2022-11-21T21:42:56;95204.97;;;4.46;100.00
23616;BME280;11985;49.404;7.734;2022-11-21T21:47:59;95188.31;;;4.47;100.00
23616;BME280;11985;49.404;7.734;2022-11-21T21:53:00;95188.00;;;4.55;100.00
23616;BME280;11985;49.404;7.734;2022-11-21T21:58:02;95187.88;;;4.68;100.00
23616;BME280;11985;49.404;7.734;2022-11-21T22:03:05;95183.81;;;4.72;100.00
23616;BME280;11985;49.404;7.734;2022-11-21T22:08:07;95184.63;;;4.73;100.00
23616;BME280;11985;49.404;7.734;2022-11-21T22:13:08;95195.63;;;4.75;100.00
23616;BME280;11985;49.404;7.734;2022-11-21T22:18:11;95190.16;;;4.76;100.00
23616;BME280;11985;49.404;7.734;2022-11-21T22:23:13;95191.06;;;4.70;100.00
23616;BME280;11985;49.404;7.734;2022-11-21T22:28:14;95174.63;;;4.70;100.00
23616;BME280;11985;49.404;7.734;2022-11-21T22:33:17;95182.22;;;4.71;100.00
23616;BME280;11985;49.404;7.734;2022-11-21T22:38:19;95182.22;;;4.71;100.00
23616;BME280;11985;49.404;7.734;2022-11-21T22:43:20;95180.72;;;4.64;100.00
23616;BME280;11985;49.404;7.734;2022-11-21T22:48:23;95193.53;;;4.65;100.00
23616;BME280;11985;49.404;7.734;2022-11-21T22:53:25;95175.25;;;4.65;100.00
23616;BME280;11985;49.404;7.734;2022-11-21T22:58:28;95175.84;;;4.67;100.00
23616;BME280;11985;49.404;7.734;2022-11-21T23:03:32;95179.03;;;4.69;100.00
23616;BME280;11985;49.404;7.734;2022-11-21T23:08:35;95177.00;;;4.71;100.00
23616;BME280;11985;49.404;7.734;2022-11-21T23:13:38;95174.53;;;4.76;100.00
23616;BME280;11985;49.404;7.734;2022-11-21T23:18:41;95192.56;;;4.78;100.00
23616;BME280;11985;49.404;7.734;2022-11-21T23:23:43;95199.59;;;4.78;100.00
23616;BME280;11985;49.404;7.734;2022-11-21T23:28:45;95194.50;;;4.83;100.00
23616;BME280;11985;49.404;7.734;2022-11-21T23:33:47;95199.94;;;4.81;100.00
23616;BME280;11985;49.404;7.734;2022-11-21T23:38:49;95197.25;;;4.88;100.00
23616;BME280;11985;49.404;7.734;2022-11-21T23:43:50;95193.19;;;4.92;100.00
23616;BME280;11985;49.404;7.734;2022-11-21T23:48:53;95187.75;;;4.93;100.00
23616;BME280;11985;49.404;7.734;2022-11-21T23:53:55;95187.22;;;5.03;100.00
23616;BME280;11985;49.404;7.734;2022-11-21T23:58:56;95189.84;;;5.03;100.00
